createdAt,value
2023-02-22T00:01:36.628Z,11.24
2023-02-22T00:04:16.169Z,11.77
2023-02-22T00:06:49.371Z,11.67
2023-02-22T00:09:20.659Z,11.65
2023-02-22T00:11:53.786Z,11.75
2023-02-22T00:14:32.457Z,11.76
2023-02-22T00:17:13.789Z,11.55
2023-02-22T00:19:46.527Z,11.13
2023-02-22T00:22:20.171Z,11.50
2023-02-22T00:24:48.386Z,11.20
2023-02-22T00:27:15.030Z,11.02
2023-02-22T00:29:58.326Z,11.77
2023-02-22T00:32:33.694Z,11.50
2023-02-22T00:35:08.412Z,11.24
2023-02-22T00:37:41.859Z,11.50
2023-02-22T00:40:31.351Z,11.67
2023-02-22T00:43:11.211Z,11.53
2023-02-22T00:45:41.686Z,11.58
2023-02-22T00:48:09.698Z,11.45
2023-02-22T00:50:46.416Z,11.79
2023-02-22T00:53:26.500Z,11.70
2023-02-22T00:55:56.161Z,11.52
2023-02-22T01:01:07.294Z,11.22
2023-02-22T01:03:35.336Z,10.99
2023-02-22T01:06:11.287Z,11.43
2023-02-22T01:08:47.383Z,11.31
2023-02-22T01:11:19.815Z,11.31
2023-02-22T01:13:49.152Z,11.28
2023-02-22T01:16:15.727Z,10.83
2023-02-22T01:18:42.297Z,11.16
2023-02-22T01:21:15.546Z,11.26
2023-02-22T01:23:45.176Z,11.14
2023-02-22T01:26:12.054Z,11.04
2023-02-22T01:28:39.379Z,11.26
2023-02-22T01:31:12.670Z,10.75
2023-02-22T01:33:42.165Z,10.99
2023-02-22T01:36:11.791Z,10.97
2023-02-22T01:38:39.217Z,10.65
2023-02-22T01:41:09.218Z,10.74
2023-02-22T01:43:35.980Z,11.05
2023-02-22T01:46:24.352Z,11.05
2023-02-22T01:48:56.265Z,10.94
2023-02-22T01:51:37.540Z,10.93
2023-02-22T01:54:12.088Z,11.12
2023-02-22T01:56:40.619Z,11.16
2023-02-22T01:59:12.717Z,11.12
2023-02-22T02:01:43.030Z,11.10
2023-02-22T02:04:26.260Z,11.03
2023-02-22T02:07:06.189Z,10.83
2023-02-22T02:09:47.235Z,11.13
2023-02-22T02:12:18.806Z,10.75
2023-02-22T02:14:45.618Z,11.10
2023-02-22T02:17:37.263Z,10.99
2023-02-22T02:20:14.323Z,11.00
2023-02-22T02:23:01.015Z,11.02
2023-02-22T02:26:09.664Z,11.00
2023-02-22T02:29:05.675Z,11.14
2023-02-22T02:32:03.348Z,11.19
2023-02-22T02:34:34.556Z,11.19
2023-02-22T02:37:11.505Z,10.80
2023-02-22T02:40:06.594Z,11.00
2023-02-22T02:42:43.207Z,11.04
2023-02-22T02:45:32.100Z,10.68
2023-02-22T02:48:08.462Z,11.18
2023-02-22T02:50:46.214Z,11.02
2023-02-22T02:53:17.208Z,11.05
2023-02-22T02:55:45.651Z,11.13
2023-02-22T02:58:27.105Z,11.21
2023-02-22T03:00:59.073Z,11.31
2023-02-22T03:03:44.504Z,11.41
2023-02-22T03:06:30.501Z,11.66
2023-02-22T03:09:52.616Z,11.36
2023-02-22T03:13:11.090Z,11.45
2023-02-22T03:16:03.244Z,11.52
2023-02-22T03:18:43.184Z,11.42
2023-02-22T03:21:30.495Z,10.89
2023-02-22T03:24:09.999Z,11.22
2023-02-22T03:26:53.970Z,11.24
2023-02-22T03:29:26.293Z,11.04
2023-02-22T03:32:01.412Z,11.06
2023-02-22T03:34:35.988Z,11.01
2023-02-22T03:37:40.733Z,10.93
2023-02-22T03:40:16.874Z,10.84
2023-02-22T03:42:55.604Z,10.76
2023-02-22T03:45:35.833Z,10.84
2023-02-22T03:48:29.216Z,10.91
2023-02-22T03:51:01.399Z,10.93
2023-02-22T03:53:45.600Z,10.52
2023-02-22T03:56:23.008Z,11.10
2023-02-22T03:58:59.774Z,11.05
2023-02-22T04:02:00.577Z,11.06
2023-02-22T04:04:22.307Z,10.97
2023-02-22T04:06:49.880Z,10.86
2023-02-22T04:09:22.793Z,10.37
2023-02-22T04:11:51.309Z,10.98
2023-02-22T04:14:24.072Z,11.01
2023-02-22T04:16:58.372Z,10.88
2023-02-22T04:19:25.007Z,11.12
2023-02-22T04:21:51.710Z,11.18
2023-02-22T04:24:18.353Z,10.84
2023-02-22T04:26:45.101Z,10.82
2023-02-22T04:29:11.697Z,11.21
2023-02-22T04:31:39.641Z,11.14
2023-02-22T04:34:06.608Z,10.80
2023-02-22T04:36:38.950Z,11.00
2023-02-22T04:39:05.594Z,11.03
2023-02-22T04:41:35.467Z,10.53
2023-02-22T04:44:02.456Z,10.90
2023-02-22T04:46:29.301Z,10.76
2023-02-22T04:49:10.910Z,10.71
2023-02-22T04:51:42.689Z,10.75
2023-02-22T04:54:13.111Z,10.63
2023-02-22T04:56:43.378Z,10.77
2023-02-22T04:59:21.094Z,10.72
2023-02-22T05:01:55.759Z,10.78
2023-02-22T05:04:30.972Z,10.83
2023-02-22T05:07:08.599Z,10.63
2023-02-22T05:09:38.065Z,10.87
2023-02-22T05:12:12.520Z,10.77
2023-02-22T05:14:43.838Z,10.90
2023-02-22T05:17:21.006Z,10.78
2023-02-22T05:19:51.363Z,10.85
2023-02-22T05:22:27.196Z,10.89
2023-02-22T05:25:03.157Z,10.97
2023-02-22T05:27:29.705Z,10.83
2023-02-22T05:29:56.521Z,10.70
2023-02-22T05:32:23.114Z,11.07
2023-02-22T05:34:58.417Z,11.05
2023-02-22T05:37:34.332Z,10.72
2023-02-22T05:40:01.186Z,11.14
2023-02-22T05:42:30.818Z,11.10
2023-02-22T05:45:02.447Z,11.02
2023-02-22T05:47:29.608Z,10.92
2023-02-22T05:50:00.809Z,10.76
2023-02-22T05:52:31.616Z,10.17
2023-02-22T05:54:58.773Z,10.57
2023-02-22T05:57:32.166Z,10.73
2023-02-22T06:00:00.880Z,10.85
2023-02-22T06:02:27.481Z,11.21
2023-02-22T06:04:57.048Z,11.11
2023-02-22T06:07:23.621Z,11.12
2023-02-22T06:09:50.178Z,11.08
2023-02-22T06:12:25.217Z,10.94
2023-02-22T06:14:51.699Z,11.12
2023-02-22T06:17:20.510Z,10.96
2023-02-22T06:19:51.571Z,10.98
2023-02-22T06:22:25.072Z,10.22
2023-02-22T06:24:55.186Z,11.01
2023-02-22T06:27:30.954Z,10.96
2023-02-22T06:29:57.584Z,11.08
2023-02-22T06:32:27.805Z,10.77
2023-02-22T06:34:54.744Z,10.89
2023-02-22T06:37:21.672Z,11.11
2023-02-22T06:39:48.806Z,10.19
2023-02-22T06:42:15.592Z,10.79
2023-02-22T06:44:45.170Z,11.01
2023-02-22T06:47:11.858Z,11.28
2023-02-22T06:49:40.385Z,11.34
2023-02-22T06:52:08.269Z,11.40
2023-02-22T06:54:45.052Z,11.35
2023-02-22T06:57:17.221Z,11.23
2023-02-22T06:59:45.846Z,11.19
2023-02-22T07:02:14.709Z,11.27
2023-02-22T07:04:46.355Z,11.32
2023-02-22T07:07:12.975Z,11.27
2023-02-22T07:09:41.707Z,11.16
2023-02-22T07:12:23.244Z,11.16
2023-02-22T07:14:58.815Z,11.08
2023-02-22T07:17:28.409Z,11.14
2023-02-22T07:20:02.642Z,11.16
2023-02-22T07:22:39.022Z,11.16
2023-02-22T07:25:11.537Z,11.11
2023-02-22T07:27:47.197Z,11.06
2023-02-22T07:30:37.670Z,11.10
2023-02-22T07:33:09.978Z,11.12
2023-02-22T07:35:39.238Z,11.11
2023-02-22T07:38:13.761Z,11.00
2023-02-22T07:40:47.234Z,10.68
2023-02-22T07:43:17.739Z,11.11
2023-02-22T07:45:48.524Z,10.88
2023-02-22T07:48:18.288Z,11.00
2023-02-22T07:50:45.402Z,11.20
2023-02-22T07:56:11.592Z,11.12
2023-02-22T07:58:38.637Z,10.26
2023-02-22T08:01:10.260Z,11.13
2023-02-22T08:03:38.195Z,11.37
2023-02-22T08:06:08.335Z,11.30
2023-02-22T08:08:35.413Z,11.51
2023-02-22T08:11:02.622Z,11.51
2023-02-22T08:13:30.060Z,11.36
2023-02-22T08:15:56.789Z,11.49
2023-02-22T08:18:32.754Z,11.49
2023-02-22T08:21:09.462Z,11.43
2023-02-22T08:23:42.207Z,11.27
2023-02-22T08:26:10.992Z,11.41
2023-02-22T08:28:51.845Z,11.23
2023-02-22T08:31:30.888Z,11.37
2023-02-22T08:33:58.110Z,11.36
2023-02-22T08:36:27.279Z,11.40
2023-02-22T08:38:55.415Z,11.40
2023-02-22T08:41:30.113Z,11.31
2023-02-22T08:43:56.745Z,11.48
2023-02-22T08:46:31.236Z,11.33
2023-02-22T08:48:57.766Z,11.55
2023-02-22T08:51:27.682Z,11.46
2023-02-22T08:53:54.928Z,11.40
2023-02-22T08:56:23.827Z,11.66
2023-02-22T08:58:50.608Z,11.67
2023-02-22T09:01:24.807Z,11.82
2023-02-22T09:03:59.458Z,11.77
2023-02-22T09:06:33.091Z,11.86
2023-02-22T09:09:06.869Z,11.58
2023-02-22T09:11:41.821Z,11.57
2023-02-22T09:14:14.536Z,11.58
2023-02-22T09:16:50.057Z,11.61
2023-02-22T09:19:18.166Z,11.58
2023-02-22T09:22:04.091Z,11.24
2023-02-22T09:24:38.419Z,11.85
2023-02-22T09:27:14.954Z,11.95
2023-02-22T09:29:41.847Z,11.97
2023-02-22T09:32:08.687Z,12.13
2023-02-22T09:34:43.723Z,11.94
2023-02-22T09:37:11.932Z,12.12
2023-02-22T09:39:42.116Z,12.23
2023-02-22T09:42:13.629Z,11.58
2023-02-22T09:44:55.533Z,11.83
2023-02-22T09:47:48.918Z,12.22
2023-02-22T09:50:29.334Z,12.25
2023-02-22T09:53:06.072Z,11.52
2023-02-22T09:56:13.265Z,12.47
2023-02-22T09:58:45.934Z,12.36
2023-02-22T10:01:52.731Z,11.92
2023-02-22T10:04:34.976Z,11.12
2023-02-22T10:07:26.365Z,12.25
2023-02-22T10:10:06.752Z,12.19
2023-02-22T10:12:58.108Z,12.06
2023-02-22T10:15:49.057Z,12.21
2023-02-22T10:18:44.703Z,12.27
2023-02-22T10:21:29.383Z,11.63
2023-02-22T10:24:48.164Z,12.19
2023-02-22T10:27:32.167Z,12.33
2023-02-22T10:30:23.418Z,12.27
2023-02-22T10:33:32.748Z,12.51
2023-02-22T10:36:23.041Z,12.53
2023-02-22T10:38:55.259Z,12.55
2023-02-22T10:41:28.511Z,12.31
2023-02-22T10:44:08.897Z,11.43
2023-02-22T10:46:39.880Z,12.25
2023-02-22T10:49:09.784Z,12.41
2023-02-22T10:51:48.202Z,12.65
2023-02-22T10:54:21.331Z,12.73
2023-02-22T10:56:58.047Z,12.73
2023-02-22T10:59:33.664Z,12.70
2023-02-22T11:02:33.910Z,12.81
2023-02-22T11:05:04.452Z,12.67
2023-02-22T11:07:40.785Z,12.58
2023-02-22T11:10:14.491Z,12.68
2023-02-22T11:12:58.144Z,12.86
2023-02-22T11:15:32.070Z,12.63
2023-02-22T11:18:10.539Z,12.90
2023-02-22T11:20:40.041Z,13.00
2023-02-22T11:23:13.819Z,12.79
2023-02-22T11:25:42.714Z,12.98
2023-02-22T11:28:31.072Z,12.89
2023-02-22T11:31:18.873Z,13.15
2023-02-22T11:34:29.473Z,12.96
2023-02-22T11:37:36.697Z,13.33
2023-02-22T11:40:35.686Z,13.05
2023-02-22T11:43:19.977Z,13.30
2023-02-22T11:46:26.289Z,13.53
2023-02-22T11:49:09.748Z,12.73
2023-02-22T11:52:13.826Z,13.69
2023-02-22T11:54:54.278Z,13.67
2023-02-22T11:57:41.186Z,13.67
2023-02-22T12:00:32.944Z,13.69
2023-02-22T12:03:23.422Z,13.57
2023-02-22T12:06:08.369Z,13.38
2023-02-22T12:09:02.887Z,12.27
2023-02-22T12:11:50.909Z,13.65
2023-02-22T12:14:36.564Z,13.11
2023-02-22T12:17:23.597Z,12.70
2023-02-22T12:19:56.812Z,13.57
2023-02-22T12:22:39.226Z,13.40
2023-02-22T12:25:32.134Z,13.68
2023-02-22T12:28:24.301Z,13.75
2023-02-22T12:31:18.758Z,13.06
2023-02-22T12:34:08.084Z,13.60
2023-02-22T12:36:57.131Z,13.63
2023-02-22T12:39:40.929Z,13.69
2023-02-22T12:42:16.968Z,13.80
2023-02-22T12:45:05.090Z,13.17
2023-02-22T12:47:51.129Z,13.72
2023-02-22T12:50:44.833Z,13.43
2023-02-22T12:53:26.884Z,13.80
2023-02-22T12:56:30.924Z,13.71
2023-02-22T12:59:23.178Z,13.50
2023-02-22T13:02:05.033Z,13.65
2023-02-22T13:04:37.034Z,13.64
2023-02-22T13:07:35.857Z,13.77
2023-02-22T13:10:41.704Z,13.68
2023-02-22T13:13:45.446Z,13.41
2023-02-22T13:16:28.093Z,13.77
2023-02-22T13:19:28.396Z,13.76
2023-02-22T13:22:30.561Z,13.54
2023-02-22T13:25:35.845Z,13.00
2023-02-22T13:28:31.334Z,13.71
2023-02-22T13:31:07.427Z,13.74
2023-02-22T13:33:51.674Z,13.78
2023-02-22T13:36:38.762Z,13.75
2023-02-22T13:39:39.393Z,14.10
2023-02-22T13:42:48.896Z,13.74
2023-02-22T13:46:08.466Z,13.81
2023-02-22T13:52:13.036Z,13.78
2023-02-22T13:54:52.689Z,13.96
2023-02-22T13:57:38.936Z,13.77
2023-02-22T14:00:17.489Z,13.86
2023-02-22T14:03:34.359Z,13.97
2023-02-22T14:06:01.494Z,13.84
2023-02-22T14:08:28.101Z,13.89
2023-02-22T14:11:04.570Z,13.41
2023-02-22T14:14:12.268Z,13.95
2023-02-22T14:17:22.161Z,13.87
2023-02-22T14:20:04.459Z,13.81
2023-02-22T14:22:31.178Z,13.09
2023-02-22T14:25:01.134Z,13.58
2023-02-22T14:27:40.196Z,13.78
2023-02-22T14:30:30.974Z,13.72
2023-02-22T14:32:57.948Z,13.93
2023-02-22T14:35:49.908Z,13.75
2023-02-22T14:38:22.105Z,13.44
2023-02-22T14:40:49.594Z,13.89
2023-02-22T14:43:25.873Z,13.88
2023-02-22T14:46:13.101Z,13.96
2023-02-22T14:48:51.466Z,13.94
2023-02-22T14:51:53.320Z,13.90
2023-02-22T14:54:36.905Z,13.86
2023-02-22T14:57:18.516Z,14.07
2023-02-22T14:59:56.723Z,13.88
2023-02-22T15:02:26.169Z,14.00
2023-02-22T15:04:59.450Z,14.05
2023-02-22T15:07:30.619Z,13.87
2023-02-22T15:10:28.208Z,13.90
2023-02-22T15:13:19.617Z,13.42
2023-02-22T15:16:13.833Z,13.99
2023-02-22T15:18:48.891Z,13.79
2023-02-22T15:21:30.273Z,13.85
2023-02-22T15:24:04.840Z,14.14
2023-02-22T15:26:37.305Z,14.03
2023-02-22T15:29:20.958Z,14.11
2023-02-22T15:31:53.092Z,14.19
2023-02-22T15:34:30.506Z,14.12
2023-02-22T15:37:08.140Z,13.92
2023-02-22T15:39:34.886Z,13.68
2023-02-22T15:42:20.957Z,13.74
2023-02-22T15:44:49.292Z,13.44
2023-02-22T15:47:35.015Z,13.55
2023-02-22T15:50:26.627Z,13.63
2023-02-22T15:53:02.299Z,13.26
2023-02-22T15:55:36.287Z,13.62
2023-02-22T15:58:26.349Z,13.69
2023-02-22T16:01:25.577Z,13.60
2023-02-22T16:04:00.551Z,13.92
2023-02-22T16:06:41.666Z,13.93
2023-02-22T16:09:25.601Z,13.88
2023-02-22T16:12:17.451Z,14.00
2023-02-22T16:14:45.072Z,13.68
2023-02-22T16:17:55.956Z,13.82
2023-02-22T16:20:32.653Z,13.45
2023-02-22T16:22:59.371Z,13.70
2023-02-22T16:25:39.799Z,13.38
2023-02-22T16:31:25.239Z,13.59
2023-02-22T16:33:56.082Z,13.74
2023-02-22T16:39:38.399Z,13.75
2023-02-22T16:42:31.446Z,12.83
2023-02-22T16:45:18.932Z,13.23
2023-02-22T16:47:57.337Z,13.50
2023-02-22T16:50:32.749Z,13.54
2023-02-22T16:53:12.155Z,13.53
2023-02-22T16:56:19.906Z,13.60
2023-02-22T16:59:04.221Z,13.60
2023-02-22T17:01:39.618Z,13.53
2023-02-22T17:04:24.246Z,13.56
2023-02-22T17:06:54.974Z,13.33
2023-02-22T17:09:30.622Z,13.39
2023-02-22T17:12:05.414Z,13.04
2023-02-22T17:14:44.486Z,13.24
2023-02-22T17:17:17.017Z,13.36
2023-02-22T17:19:43.567Z,13.37
2023-02-22T17:22:18.914Z,12.99
2023-02-22T17:24:51.764Z,13.40
2023-02-22T17:27:21.363Z,13.37
2023-02-22T17:29:51.755Z,13.28
2023-02-22T17:32:20.529Z,13.35
2023-02-22T17:34:47.204Z,13.36
2023-02-22T17:37:15.210Z,13.34
2023-02-22T17:39:41.871Z,13.38
2023-02-22T17:42:12.049Z,13.45
2023-02-22T17:44:40.107Z,12.93
2023-02-22T17:47:10.331Z,13.41
2023-02-22T17:49:46.593Z,13.11
2023-02-22T17:52:20.580Z,13.10
2023-02-22T17:55:02.023Z,13.19
2023-02-22T17:57:36.675Z,13.16
2023-02-22T18:00:12.742Z,13.36
2023-02-22T18:02:51.291Z,13.35
2023-02-22T18:05:26.671Z,13.19
2023-02-22T18:07:56.204Z,13.37
2023-02-22T18:10:23.206Z,13.36
2023-02-22T18:12:57.922Z,13.16
2023-02-22T18:15:58.774Z,13.32
2023-02-22T18:18:39.917Z,13.04
2023-02-22T18:21:22.393Z,12.72
2023-02-22T18:23:50.151Z,13.23
2023-02-22T18:26:27.608Z,13.20
2023-02-22T18:29:02.822Z,13.09
2023-02-22T18:31:29.684Z,13.03
2023-02-22T18:33:57.644Z,13.12
2023-02-22T18:36:25.812Z,12.83
2023-02-22T18:38:54.280Z,13.17
2023-02-22T18:41:25.855Z,13.14
2023-02-22T18:43:57.819Z,13.15
2023-02-22T18:46:32.196Z,12.88
2023-02-22T18:48:59.888Z,12.31
2023-02-22T18:51:34.525Z,13.15
2023-02-22T18:54:12.377Z,13.12
2023-02-22T18:56:40.367Z,12.79
2023-02-22T18:59:19.439Z,13.02
2023-02-22T19:01:49.183Z,13.11
2023-02-22T19:04:18.305Z,12.94
2023-02-22T19:07:06.365Z,13.10
2023-02-22T19:09:37.614Z,12.81
2023-02-22T19:12:04.902Z,12.98
2023-02-22T19:14:31.459Z,12.63
2023-02-22T19:17:02.754Z,13.02
2023-02-22T19:19:32.636Z,12.92
2023-02-22T19:22:01.584Z,12.48
2023-02-22T19:24:28.860Z,13.00
2023-02-22T19:27:04.487Z,12.77
2023-02-22T19:29:33.569Z,12.86
2023-02-22T19:32:00.989Z,13.00
2023-02-22T19:34:33.866Z,12.67
2023-02-22T19:37:10.302Z,12.68
2023-02-22T19:39:38.926Z,12.84
2023-02-22T19:42:11.266Z,12.80
2023-02-22T19:44:38.126Z,13.01
2023-02-22T19:47:10.100Z,12.96
2023-02-22T19:49:44.620Z,13.00
2023-02-22T19:52:11.210Z,12.79
2023-02-22T19:54:38.232Z,12.57
2023-02-22T19:57:11.823Z,12.73
2023-02-22T19:59:43.782Z,12.97
2023-02-22T20:02:15.082Z,12.89
2023-02-22T20:04:58.245Z,12.93
2023-02-22T20:07:52.942Z,12.90
2023-02-22T20:10:28.744Z,13.09
2023-02-22T20:12:55.492Z,13.01
2023-02-22T20:15:47.003Z,12.87
2023-02-22T20:18:20.303Z,12.93
2023-02-22T20:20:54.325Z,12.95
2023-02-22T20:23:25.566Z,12.72
2023-02-22T20:26:03.100Z,12.93
2023-02-22T20:28:45.582Z,12.89
2023-02-22T20:31:26.107Z,12.66
2023-02-22T20:33:57.991Z,12.87
2023-02-22T20:36:25.655Z,12.90
2023-02-22T20:39:15.054Z,11.69
2023-02-22T20:41:45.175Z,12.51
2023-02-22T20:44:22.422Z,12.79
2023-02-22T20:46:55.557Z,12.43
2023-02-22T20:49:30.088Z,12.69
2023-02-22T20:51:56.863Z,12.80
2023-02-22T20:54:25.226Z,12.74
2023-02-22T20:56:53.595Z,12.79
2023-02-22T21:02:54.122Z,12.59
2023-02-22T21:05:27.855Z,11.86
2023-02-22T21:08:40.645Z,12.54
2023-02-22T21:11:30.839Z,12.82
2023-02-22T21:13:58.237Z,12.80
2023-02-22T21:16:41.353Z,12.72
2023-02-22T21:19:10.785Z,12.75
2023-02-22T21:21:49.922Z,12.56
2023-02-22T21:24:19.791Z,12.75
2023-02-22T21:27:18.383Z,12.75
2023-02-22T21:29:59.898Z,12.51
2023-02-22T21:32:26.802Z,12.66
2023-02-22T21:35:01.546Z,12.71
2023-02-22T21:37:32.720Z,12.65
2023-02-22T21:40:04.765Z,12.51
2023-02-22T21:42:49.945Z,12.64
2023-02-22T21:45:27.037Z,12.30
2023-02-22T21:48:02.272Z,11.83
2023-02-22T21:50:44.451Z,12.03
2023-02-22T21:53:14.272Z,12.13
2023-02-22T21:55:52.114Z,11.84
2023-02-22T21:58:39.941Z,12.05
2023-02-22T22:01:29.025Z,12.44
2023-02-22T22:04:24.768Z,12.02
2023-02-22T22:09:45.042Z,11.97
2023-02-22T22:12:12.582Z,12.12
2023-02-22T22:14:40.404Z,11.93
2023-02-22T22:17:14.293Z,12.38
2023-02-22T22:20:11.056Z,12.35
2023-02-22T22:22:49.375Z,12.36
2023-02-22T22:25:53.391Z,12.24
2023-02-22T22:28:31.261Z,12.32
2023-02-22T22:31:00.723Z,12.07
2023-02-22T22:33:32.723Z,12.27
2023-02-22T22:36:06.733Z,12.31
2023-02-22T22:38:58.056Z,12.00
2023-02-22T22:41:28.115Z,11.84
2023-02-22T22:43:57.567Z,12.32
2023-02-22T22:46:31.636Z,12.30
2023-02-22T22:48:58.387Z,12.31
2023-02-22T22:51:24.898Z,12.13
2023-02-22T22:53:52.022Z,12.19
2023-02-22T22:56:38.530Z,12.25
2023-02-22T22:59:15.768Z,12.13
2023-02-22T23:01:46.397Z,12.05
2023-02-22T23:04:19.677Z,12.22
2023-02-22T23:06:52.049Z,11.98
2023-02-22T23:09:34.774Z,12.27
2023-02-22T23:12:18.281Z,12.19
2023-02-22T23:14:47.305Z,12.16
2023-02-22T23:17:45.332Z,12.19
2023-02-22T23:20:21.383Z,12.17
2023-02-22T23:22:49.102Z,11.80
2023-02-22T23:25:30.265Z,12.23
2023-02-22T23:27:57.843Z,12.21
2023-02-22T23:30:25.234Z,12.24
2023-02-22T23:33:18.861Z,11.95
2023-02-22T23:36:03.753Z,12.19
2023-02-22T23:38:35.001Z,12.02
2023-02-22T23:41:10.197Z,12.07
2023-02-22T23:43:40.440Z,12.23
2023-02-22T23:46:19.580Z,12.22
2023-02-22T23:49:01.692Z,11.84
2023-02-22T23:51:46.329Z,12.10
2023-02-22T23:54:21.201Z,12.20
2023-02-22T23:56:57.086Z,11.68
2023-02-22T23:59:29.822Z,12.11
